Time;durP1;ratioP1;P1;durP2;ratioP2;P2;SDS_P1;SDS_P2;PMS_P1;PMS_P2;Temp;Humidity;BMP_temperature;BMP_pressure;BME280_temperature;BME280_humidity;BME280_pressure;Samples;Min_cycle;Max_cycle;Signal;HPM_P1;HPM_P2
2022/03/10 00:02:13;;;;;;;30.63;15.65;;;;;;;1.10;52.09;93947.03;5026352;28;20498;-72
2022/03/10 00:04:39;;;;;;;23.20;13.63;;;;;;;1.04;52.44;93934.91;5035396;28;20079;-72
2022/03/10 00:07:04;;;;;;;23.38;12.75;;;;;;;1.13;52.11;93930.81;5030694;28;20033;-72
2022/03/10 00:09:32;;;;;;;25.05;12.98;;;;;;;1.04;52.63;93940.94;5029472;28;20044;-72
2022/03/10 00:11:57;;;;;;;21.48;11.50;;;;;;;1.04;52.54;93940.16;5015491;28;20048;-73
2022/03/10 00:14:22;;;;;;;27.17;14.68;;;;;;;1.05;52.44;93929.44;5024016;28;20068;-72
2022/03/10 00:16:51;;;;;;;25.15;13.73;;;;;;;1.21;51.67;93918.03;5015915;28;20597;-74
2022/03/10 00:19:17;;;;;;;20.15;13.68;;;;;;;1.47;51.11;93932.06;5017576;28;20061;-74
2022/03/10 00:21:43;;;;;;;21.73;12.93;;;;;;;1.47;50.94;93924.19;5020532;28;20048;-75
2022/03/10 00:24:08;;;;;;;18.92;11.20;;;;;;;1.40;50.92;93926.28;5019946;28;20048;-73
2022/03/10 00:26:34;;;;;;;21.20;11.80;;;;;;;1.34;51.30;93926.47;5019854;28;20079;-73
2022/03/10 00:29:00;;;;;;;26.08;12.43;;;;;;;1.04;51.81;93927.06;5022956;28;20021;-72
2022/03/10 00:31:25;;;;;;;25.65;11.95;;;;;;;0.78;52.04;93898.09;5020357;28;20638;-73
2022/03/10 00:33:51;;;;;;;19.50;10.60;;;;;;;0.82;52.21;93900.19;5018684;28;20143;-74
2022/03/10 00:36:16;;;;;;;19.55;11.10;;;;;;;1.05;51.46;93907.69;5022432;28;20193;-73
2022/03/10 00:38:42;;;;;;;23.02;12.40;;;;;;;1.26;51.39;93921.72;5031138;28;20041;-72
2022/03/10 00:41:09;;;;;;;21.63;11.48;;;;;;;1.14;51.67;93922.69;5020454;28;20060;-75
2022/03/10 00:43:35;;;;;;;26.30;14.18;;;;;;;1.23;51.34;93917.75;5021535;28;20124;-73
2022/03/10 00:46:01;;;;;;;25.98;14.35;;;;;;;1.05;51.22;93890.16;5021724;28;20452;-75
2022/03/10 00:48:26;;;;;;;21.23;11.73;;;;;;;1.11;51.53;93917.19;5015480;28;20396;-72
2022/03/10 00:50:52;;;;;;;26.08;11.68;;;;;;;0.98;52.08;93915.00;5028225;28;20809;-72
2022/03/10 00:53:17;;;;;;;17.77;9.77;;;;;;;0.92;51.95;93910.75;5017071;28;20025;-74
2022/03/10 00:55:42;;;;;;;23.83;12.13;;;;;;;0.76;52.06;93889.69;5027665;28;20023;-75
2022/03/10 00:58:13;;;;;;;24.15;12.30;;;;;;;1.13;51.62;93910.63;5022859;28;20131;-74
2022/03/10 01:00:38;;;;;;;24.67;12.05;;;;;;;0.93;51.41;93878.28;5023058;28;20037;-72
2022/03/10 01:03:05;;;;;;;24.25;12.90;;;;;;;0.95;51.52;93912.84;5042529;28;20043;-71
2022/03/10 01:05:31;;;;;;;26.55;11.70;;;;;;;1.16;51.20;93904.13;5024839;28;20282;-75
2022/03/10 01:07:57;;;;;;;18.05;10.32;;;;;;;1.15;50.38;93882.38;5015344;28;20029;-74
2022/03/10 01:10:23;;;;;;;24.15;14.48;;;;;;;1.09;50.85;93911.38;5019921;28;20057;-74
2022/03/10 01:12:50;;;;;;;23.00;12.18;;;;;;;0.95;51.36;93912.84;5026407;28;20482;-76
2022/03/10 01:15:24;;;;;;;17.95;11.00;;;;;;;0.92;51.40;93897.66;5011981;28;20041;-74
2022/03/10 01:17:50;;;;;;;18.60;10.20;;;;;;;0.94;51.38;93912.06;5018486;28;20145;-74
2022/03/10 01:20:17;;;;;;;19.42;11.43;;;;;;;0.83;51.69;93907.00;5018101;28;20150;-75
2022/03/10 01:22:43;;;;;;;28.60;12.45;;;;;;;0.91;51.77;93909.16;5023608;28;20074;-72
2022/03/10 01:25:09;;;;;;;24.75;11.88;;;;;;;0.96;51.68;93914.44;5026873;28;20033;-74
2022/03/10 01:27:35;;;;;;;18.90;11.15;;;;;;;0.90;51.57;93910.19;5018918;28;20044;-72
2022/03/10 01:30:03;;;;;;;18.30;10.55;;;;;;;0.87;51.54;93900.22;5012268;28;20037;-75
2022/03/10 01:32:28;;;;;;;28.75;11.85;;;;;;;1.12;51.21;93906.47;5021702;28;20114;-74
2022/03/10 01:34:53;;;;;;;18.10;11.68;;;;;;;1.35;50.38;93899.25;5027367;28;20029;-72
2022/03/10 01:37:20;;;;;;;21.52;11.23;;;;;;;1.09;50.86;93906.94;5009952;28;20036;-74
2022/03/10 01:39:46;;;;;;;21.58;12.00;;;;;;;0.98;50.83;93902.69;5020498;28;20034;-72
2022/03/10 01:42:11;;;;;;;19.10;11.38;;;;;;;0.91;51.32;93888.22;5024581;28;20037;-75
2022/03/10 01:44:37;;;;;;;21.67;11.90;;;;;;;0.78;51.31;93881.59;5008442;28;20094;-73
2022/03/10 01:47:05;;;;;;;18.65;11.10;;;;;;;0.90;51.14;93899.72;5023690;28;20332;-73
2022/03/10 01:49:32;;;;;;;21.23;10.50;;;;;;;1.12;50.14;93900.44;5016182;28;20607;-71
2022/03/10 01:51:58;;;;;;;15.63;9.25;;;;;;;0.99;50.33;93900.84;5028368;28;20079;-75
2022/03/10 01:54:23;;;;;;;14.45;9.68;;;;;;;0.94;50.49;93900.78;5019072;28;20025;-75
2022/03/10 01:56:50;;;;;;;15.43;9.50;;;;;;;0.84;50.83;93885.03;5015631;28;20037;-75
2022/03/10 01:59:17;;;;;;;18.45;10.43;;;;;;;0.69;50.96;93873.38;5021480;28;20028;-75
2022/03/10 02:01:43;;;;;;;21.58;10.95;;;;;;;0.78;51.09;93884.19;5019630;28;20025;-75
2022/03/10 02:04:08;;;;;;;23.50;11.50;;;;;;;0.95;51.13;93913.66;5015743;28;20044;-75
2022/03/10 02:06:35;;;;;;;17.90;9.95;;;;;;;0.98;50.61;93894.84;5021890;28;20577;-74
2022/03/10 02:11:44;;;;;;;21.75;11.85;;;;;;;1.11;49.98;93877.88;5015472;28;20220;-74
2022/03/10 02:19:39;;;;;;;18.60;10.45;;;;;;;1.03;50.42;93896.69;5014784;28;20493;-74
2022/03/10 02:22:07;;;;;;;16.17;10.48;;;;;;;0.90;50.82;93895.28;5016465;28;20037;-74
2022/03/10 02:24:42;;;;;;;22.25;11.93;;;;;;;0.87;51.07;93898.41;5023395;28;20584;-75
2022/03/10 02:27:21;;;;;;;19.80;11.87;;;;;;;0.92;51.10;93902.91;5026239;28;20049;-73
2022/03/10 02:29:49;;;;;;;21.77;13.60;;;;;;;0.80;51.41;93900.44;5019269;28;20289;-74
2022/03/10 02:32:15;;;;;;;20.42;12.73;;;;;;;0.87;51.42;93901.03;5022412;28;20754;-71
2022/03/10 02:34:41;;;;;;;26.88;12.82;;;;;;;0.85;51.56;93908.34;5021840;28;20136;-73
2022/03/10 02:37:08;;;;;;;21.63;11.63;;;;;;;0.60;51.48;93856.56;5021099;28;20131;-72
2022/03/10 02:39:33;;;;;;;29.83;13.57;;;;;;;0.82;51.21;93894.97;5020815;28;20024;-74
2022/03/10 02:41:59;;;;;;;21.35;11.68;;;;;;;0.83;51.53;93901.78;5011885;28;20037;-75
2022/03/10 02:44:25;;;;;;;21.00;11.90;;;;;;;0.99;51.59;93913.94;5023583;28;20399;-72
2022/03/10 02:46:51;;;;;;;23.08;12.25;;;;;;;0.90;51.63;93899.72;5021309;28;20515;-74
2022/03/10 02:49:17;;;;;;;23.70;12.20;;;;;;;0.80;51.90;93916.94;5019803;28;20051;-76
2022/03/10 02:51:43;;;;;;;20.45;12.35;;;;;;;0.29;53.02;93922.75;5021034;28;20037;-71
2022/03/10 02:54:09;;;;;;;22.35;12.73;;;;;;;-0.25;54.48;93909.63;5018216;28;20327;-73
2022/03/10 02:56:35;;;;;;;24.85;12.00;;;;;;;0.23;53.55;93906.22;5024718;28;20495;-75
2022/03/10 02:59:00;;;;;;;22.23;11.90;;;;;;;0.58;52.67;93926.69;5027460;28;20035;-76
2022/03/10 03:01:25;;;;;;;23.15;11.95;;;;;;;0.32;52.71;93911.78;5019120;28;20447;-75
2022/03/10 03:03:51;;;;;;;22.65;12.45;;;;;;;-0.67;54.85;93927.59;5025963;28;20461;-71
2022/03/10 03:06:16;;;;;;;23.30;11.55;;;;;;;-1.07;55.17;93901.69;5024254;28;20044;-71
2022/03/10 03:08:42;;;;;;;25.25;13.40;;;;;;;-1.57;55.67;93940.81;5028640;28;20108;-71
2022/03/10 03:11:07;;;;;;;24.77;12.10;;;;;;;-2.32;56.52;93935.78;5027196;28;20193;-73
2022/03/10 03:13:33;;;;;;;23.65;10.88;;;;;;;-2.48;57.73;93946.09;5017936;28;20051;-75
2022/03/10 03:15:58;;;;;;;18.70;9.25;;;;;;;-2.65;57.57;93942.63;5024912;28;20076;-75
2022/03/10 03:18:24;;;;;;;15.30;9.10;;;;;;;-3.39;57.73;93877.25;5020891;28;20411;-74
2022/03/10 03:20:49;;;;;;;19.42;10.43;;;;;;;-3.15;58.87;93950.88;5024369;28;20562;-73
2022/03/10 03:23:14;;;;;;;18.90;8.98;;;;;;;-3.27;58.92;93942.28;5040418;28;20082;-72
2022/03/10 03:25:40;;;;;;;14.55;9.07;;;;;;;-3.25;58.27;93950.63;5027151;28;20396;-72
2022/03/10 03:28:05;;;;;;;13.25;7.57;;;;;;;-3.01;57.69;93909.81;5028635;28;20038;-73
2022/03/10 03:30:30;;;;;;;14.85;8.05;;;;;;;-2.50;56.42;93954.16;5021227;28;20033;-72
2022/03/10 03:32:56;;;;;;;20.10;8.18;;;;;;;-3.12;56.78;93935.59;5022772;28;20052;-74
2022/03/10 03:35:21;;;;;;;12.30;7.35;;;;;;;-3.67;56.84;93929.09;5027556;28;20632;-73
2022/03/10 03:37:47;;;;;;;19.17;7.80;;;;;;;-3.09;56.46;93920.56;5023148;28;20112;-75
2022/03/10 03:40:12;;;;;;;17.00;7.72;;;;;;;-2.41;54.98;93931.16;5023104;28;20566;-72
2022/03/10 03:42:38;;;;;;;12.30;7.20;;;;;;;-2.20;54.18;93943.56;5026018;28;20041;-74
2022/03/10 03:45:08;;;;;;;18.35;10.55;;;;;;;-1.94;53.43;93960.47;5019870;28;20052;-73
2022/03/10 03:47:33;;;;;;;11.38;6.85;;;;;;;-2.59;53.55;93952.13;5024147;28;20671;-73
2022/03/10 03:49:58;;;;;;;11.60;7.18;;;;;;;-1.83;52.68;93960.44;5024057;28;20057;-73
2022/03/10 03:52:24;;;;;;;10.13;6.70;;;;;;;-1.50;51.65;93951.88;5024378;28;20083;-73
2022/03/10 03:54:49;;;;;;;13.25;6.45;;;;;;;-1.32;50.89;93952.72;5022151;28;20516;-72
2022/03/10 03:57:14;;;;;;;9.50;6.10;;;;;;;-1.12;50.17;93961.66;5021783;28;21081;-72
2022/03/10 03:59:40;;;;;;;13.85;6.78;;;;;;;-1.14;49.30;93936.84;5023619;28;20171;-71
2022/03/10 04:02:08;;;;;;;11.85;6.97;;;;;;;-0.92;48.88;93961.19;5022577;28;20029;-73
2022/03/10 04:04:33;;;;;;;11.15;6.30;;;;;;;-0.81;48.64;93968.16;5023738;28;20041;-76
2022/03/10 04:06:59;;;;;;;13.60;7.93;;;;;;;-0.78;48.44;93966.88;5018143;28;20037;-75
2022/03/10 04:09:24;;;;;;;11.65;6.05;;;;;;;-0.69;48.26;93975.91;5025788;28;20029;-73
2022/03/10 04:11:50;;;;;;;12.50;6.22;;;;;;;-0.64;47.88;93968.94;5023255;28;20483;-75
2022/03/10 04:14:17;;;;;;;10.43;6.82;;;;;;;-0.66;47.44;93960.53;5018099;28;20033;-75
2022/03/10 04:16:42;;;;;;;10.70;7.35;;;;;;;-0.65;47.66;93953.50;5019507;28;20572;-75
2022/03/10 04:19:08;;;;;;;14.25;7.50;;;;;;;-0.53;47.35;93975.88;5026611;28;20053;-73
2022/03/10 04:21:38;;;;;;;16.17;6.88;;;;;;;-0.97;47.92;93969.72;5019806;28;20475;-75
2022/03/10 04:24:04;;;;;;;18.02;7.97;;;;;;;-0.83;47.53;93964.19;5037187;28;20400;-73
2022/03/10 04:26:29;;;;;;;12.52;7.28;;;;;;;-0.84;46.96;93957.38;5015425;28;20498;-74
2022/03/10 04:28:55;;;;;;;14.60;7.65;;;;;;;-0.63;46.77;93975.72;5028692;28;20155;-72
2022/03/10 04:31:20;;;;;;;12.43;6.35;;;;;;;-0.85;46.75;93955.81;5020249;28;20061;-75
2022/03/10 04:33:45;;;;;;;14.10;7.90;;;;;;;-0.87;46.64;93937.75;5026226;28;20808;-72
2022/03/10 04:36:12;;;;;;;13.38;7.43;;;;;;;-0.70;46.40;93974.31;5013352;28;20041;-72
2022/03/10 04:38:37;;;;;;;10.95;7.07;;;;;;;-0.64;46.21;93982.00;5022456;28;20132;-75
2022/03/10 04:41:03;;;;;;;13.85;6.97;;;;;;;-0.58;45.97;93988.09;5027591;28;20035;-74
2022/03/10 04:43:28;;;;;;;9.70;6.43;;;;;;;-0.85;45.99;93968.88;5018262;28;20041;-75
2022/03/10 04:45:53;;;;;;;11.57;6.70;;;;;;;-0.88;46.56;93983.19;5026760;28;20030;-74
2022/03/10 04:48:19;;;;;;;18.02;5.85;;;;;;;-0.79;46.19;93992.22;5021293;28;20046;-75
2022/03/10 04:50:45;;;;;;;10.27;6.60;;;;;;;-0.89;46.09;93994.66;5021843;28;20037;-74
2022/03/10 04:53:10;;;;;;;11.43;6.43;;;;;;;-1.23;46.27;93944.28;5021184;28;20059;-76
2022/03/10 04:55:35;;;;;;;10.52;6.25;;;;;;;-1.22;46.70;93976.38;5023139;28;20113;-74
2022/03/10 04:58:04;;;;;;;11.98;7.43;;;;;;;-2.12;48.50;94008.34;5021706;28;20546;-74
2022/03/10 05:00:29;;;;;;;14.15;9.35;;;;;;;-1.67;48.29;94015.47;5022387;28;20040;-75
2022/03/10 05:02:55;;;;;;;16.33;7.32;;;;;;;-1.44;47.88;93999.72;5020685;28;20037;-74
2022/03/10 05:05:20;;;;;;;12.18;7.00;;;;;;;-1.47;47.55;94015.88;5020706;28;20039;-74
2022/03/10 05:07:48;;;;;;;10.27;6.53;;;;;;;-1.24;47.42;94015.75;5023597;28;20063;-73
2022/03/10 05:10:14;;;;;;;13.40;6.40;;;;;;;-1.12;47.23;94021.69;5023535;28;20068;-75
2022/03/10 05:12:52;;;;;;;11.38;6.45;;;;;;;-1.29;47.01;94012.25;5022869;28;20123;-74
2022/03/10 05:15:23;;;;;;;13.85;7.32;;;;;;;-2.61;48.78;94027.06;5024422;28;20034;-75
2022/03/10 05:17:49;;;;;;;13.43;6.93;;;;;;;-3.18;50.23;94027.56;5025116;28;20179;-75
2022/03/10 05:20:15;;;;;;;12.02;6.30;;;;;;;-3.43;51.89;94049.53;5013523;28;20037;-75
2022/03/10 05:22:45;;;;;;;21.15;6.80;;;;;;;-3.87;52.99;94056.69;5023756;28;20021;-75
2022/03/10 05:25:11;;;;;;;13.73;7.90;;;;;;;-3.41;52.35;94047.50;5023943;28;20033;-75
2022/03/10 05:27:37;;;;;;;16.95;8.77;;;;;;;-3.10;51.88;94049.88;5019029;28;20028;-73
2022/03/10 05:30:06;;;;;;;22.88;10.38;;;;;;;-2.75;51.28;94047.31;5018660;28;20095;-71
2022/03/10 05:32:32;;;;;;;31.85;14.60;;;;;;;-2.37;50.45;94047.69;5023360;28;20630;-72
2022/03/10 05:34:57;;;;;;;42.15;17.10;;;;;;;-2.09;49.70;94062.59;5020839;28;20141;-73
2022/03/10 05:37:25;;;;;;;48.40;19.23;;;;;;;-2.60;50.14;94005.22;5016664;28;20521;-74
2022/03/10 05:39:52;;;;;;;46.63;16.23;;;;;;;-1.78;49.69;94071.06;5027170;28;20037;-75
2022/03/10 05:42:18;;;;;;;39.65;15.63;;;;;;;-1.90;48.83;94037.22;5028752;28;20037;-73
2022/03/10 05:44:43;;;;;;;23.35;11.82;;;;;;;-2.68;50.32;94055.03;5040098;28;20082;-72
2022/03/10 05:47:09;;;;;;;22.00;10.95;;;;;;;-3.07;51.12;94054.59;5013362;28;20021;-71
2022/03/10 05:49:37;;;;;;;13.18;7.53;;;;;;;-2.61;51.20;94069.53;5031743;28;20453;-73
2022/03/10 05:52:04;;;;;;;20.52;10.40;;;;;;;-2.00;50.32;94084.72;5021368;28;20049;-72
2022/03/10 05:54:29;;;;;;;20.98;9.35;;;;;;;-2.28;49.77;94055.94;5018470;28;20451;-73
2022/03/10 05:56:55;;;;;;;15.75;7.40;;;;;;;-3.26;51.21;94081.69;5023933;28;20041;-71
2022/03/10 05:59:20;;;;;;;10.88;6.72;;;;;;;-3.80;52.51;94098.16;5022211;28;20025;-71
2022/03/10 06:01:46;;;;;;;10.50;6.15;;;;;;;-4.19;53.47;94101.97;5020894;28;20498;-71
2022/03/10 06:04:12;;;;;;;10.13;5.95;;;;;;;-4.62;54.26;94087.19;5022941;28;20046;-74
2022/03/10 06:06:37;;;;;;;13.88;8.38;;;;;;;-4.58;54.24;94077.19;5024379;28;20041;-71
2022/03/10 06:09:03;;;;;;;6.00;5.22;;;;;;;-4.20;54.24;94072.66;5024922;28;20606;-72
2022/03/10 06:11:28;;;;;;;6.85;4.65;;;;;;;-3.80;53.34;94090.38;5017850;28;20029;-72
2022/03/10 06:13:54;;;;;;;6.47;4.28;;;;;;;-4.00;52.21;94083.59;5036461;28;20022;-72
2022/03/10 06:16:19;;;;;;;5.65;4.70;;;;;;;-3.80;51.81;94108.56;5012804;28;20041;-74
2022/03/10 06:18:46;;;;;;;5.07;3.97;;;;;;;-3.86;51.45;94107.66;5020459;28;20116;-74
2022/03/10 06:21:11;;;;;;;5.75;4.22;;;;;;;-3.82;50.79;94111.41;5026972;28;20041;-73
2022/03/10 06:23:37;;;;;;;5.45;3.50;;;;;;;-3.58;50.09;94105.31;5019267;28;20466;-74
2022/03/10 06:26:03;;;;;;;6.15;4.00;;;;;;;-3.54;50.64;94130.88;5017801;28;20039;-74
2022/03/10 06:28:29;;;;;;;8.02;4.93;;;;;;;-3.79;50.36;94120.56;5018140;28;20037;-72
2022/03/10 06:30:55;;;;;;;7.15;4.35;;;;;;;-4.32;50.96;94105.50;5025949;28;20034;-71
2022/03/10 06:33:21;;;;;;;9.23;4.75;;;;;;;-4.41;51.57;94106.78;5024043;28;20415;-71
2022/03/10 06:35:46;;;;;;;7.38;4.32;;;;;;;-4.33;51.53;94097.94;5016468;28;20092;-72
2022/03/10 06:38:11;;;;;;;6.10;3.38;;;;;;;-3.80;51.14;94130.16;5022858;28;20029;-75
2022/03/10 06:40:37;;;;;;;10.02;5.28;;;;;;;-4.20;50.44;94097.81;5023805;28;20053;-71
2022/03/10 06:43:03;;;;;;;9.30;5.47;;;;;;;-4.18;50.88;94124.34;5035994;28;21301;-75
2022/03/10 06:45:29;;;;;;;6.80;5.28;;;;;;;-4.00;51.23;94140.00;5019383;28;20044;-74
2022/03/10 06:47:54;;;;;;;8.90;5.15;;;;;;;-3.98;50.19;94143.16;5022747;28;20029;-73
2022/03/10 06:50:23;;;;;;;7.68;4.00;;;;;;;-4.25;51.03;94140.03;5023861;28;20130;-74
2022/03/10 06:52:50;;;;;;;10.27;5.18;;;;;;;-4.20;50.66;94134.19;5033073;28;20025;-72
2022/03/10 06:55:15;;;;;;;7.70;4.43;;;;;;;-4.55;50.61;94111.31;5020430;28;20046;-72
2022/03/10 06:57:41;;;;;;;8.57;4.20;;;;;;;-3.98;50.38;94143.16;5018908;28;20037;-72
2022/03/10 07:00:07;;;;;;;4.88;3.78;;;;;;;-4.17;49.39;94150.13;5021956;28;20549;-71
2022/03/10 07:02:32;;;;;;;5.43;2.92;;;;;;;-3.98;49.48;94156.13;5028741;28;20050;-72
2022/03/10 07:04:58;;;;;;;7.72;3.88;;;;;;;-3.93;49.31;94151.09;5027739;28;20040;-72
2022/03/10 07:07:23;;;;;;;5.38;3.47;;;;;;;-3.83;49.15;94159.19;5026121;28;20033;-72
2022/03/10 07:09:49;;;;;;;3.25;2.95;;;;;;;-3.94;48.41;94133.13;5022989;28;21222;-72
2022/03/10 07:12:14;;;;;;;5.68;3.83;;;;;;;-3.98;47.93;94143.16;5028194;28;20135;-75
2022/03/10 07:14:40;;;;;;;5.78;3.83;;;;;;;-3.27;47.79;94165.97;5023280;28;20036;-75
2022/03/10 07:17:05;;;;;;;7.32;4.47;;;;;;;-3.33;48.38;94166.84;5027013;28;20025;-73
2022/03/10 07:19:31;;;;;;;4.65;2.95;;;;;;;-3.86;48.66;94107.66;5027262;28;20357;-75
2022/03/10 07:21:56;;;;;;;7.68;3.45;;;;;;;-3.49;48.47;94116.22;5021902;28;20045;-74
2022/03/10 07:24:22;;;;;;;8.30;4.95;;;;;;;-3.41;48.08;94169.72;5028076;28;20624;-75
2022/03/10 07:26:47;;;;;;;8.73;5.60;;;;;;;-3.83;48.23;94159.19;5021679;28;20038;-75
2022/03/10 07:29:14;;;;;;;5.25;4.25;;;;;;;-3.74;48.52;94155.28;5024869;28;20120;-73
2022/03/10 07:31:39;;;;;;;6.40;4.40;;;;;;;-3.40;47.51;94168.72;5025432;28;20453;-75
2022/03/10 07:34:04;;;;;;;4.00;3.53;;;;;;;-3.44;48.19;94177.97;5017921;28;20033;-73
2022/03/10 07:36:30;;;;;;;5.00;3.55;;;;;;;-3.39;47.75;94165.09;5022391;28;20112;-75
2022/03/10 07:38:55;;;;;;;8.32;4.28;;;;;;;-3.27;47.14;94174.53;5027043;28;20037;-73
2022/03/10 07:41:21;;;;;;;5.65;4.13;;;;;;;-3.35;46.22;94174.84;5022873;28;20032;-74
2022/03/10 07:43:46;;;;;;;3.05;2.75;;;;;;;-3.52;47.02;94173.88;5021196;28;20043;-75
2022/03/10 07:46:12;;;;;;;5.30;3.63;;;;;;;-3.15;47.06;94185.03;5026941;28;20571;-74
2022/03/10 07:48:37;;;;;;;8.20;5.47;;;;;;;-3.39;46.40;94170.31;5024649;28;20149;-75
2022/03/10 07:51:03;;;;;;;4.07;3.42;;;;;;;-3.56;46.82;94163.09;5030587;28;20534;-75
2022/03/10 07:53:28;;;;;;;7.00;3.00;;;;;;;-3.33;46.96;94165.03;5024615;28;22169;-75
2022/03/10 07:55:56;;;;;;;5.63;3.30;;;;;;;-2.56;46.11;94173.81;5022278;28;20026;-75
2022/03/10 07:58:31;;;;;;;5.15;3.97;;;;;;;-1.88;45.05;94165.50;5030293;28;20311;-74
2022/03/10 08:00:57;;;;;;;;;;;;;;;-1.97;44.93;94167.66;5025374;28;20045;-74
2022/03/10 08:03:23;;;;;;;3.78;3.17;;;;;;;-1.95;44.68;94183.84;5023679;28;19966;-74
2022/03/10 08:05:50;;;;;;;4.53;2.83;;;;;;;-1.70;43.83;94183.63;5024696;28;20049;-75
2022/03/10 08:08:16;;;;;;;7.50;4.45;;;;;;;-2.45;43.54;94164.44;5030121;28;20025;-72
2022/03/10 08:10:41;;;;;;;5.85;3.80;;;;;;;-3.19;45.26;94186.47;5024360;28;20536;-75
2022/03/10 08:13:07;;;;;;;6.22;3.88;;;;;;;-2.90;45.84;94196.13;5035901;28;20172;-74
2022/03/10 08:15:33;;;;;;;2.88;2.45;;;;;;;-2.93;43.98;94188.75;5020796;28;20079;-74
2022/03/10 08:18:00;;;;;;;5.50;3.22;;;;;;;-2.89;44.78;94157.88;5026998;28;21179;-73
2022/03/10 08:20:26;;;;;;;4.10;3.60;;;;;;;-2.99;44.50;94188.84;5021867;28;20489;-74
2022/03/10 08:22:51;;;;;;;5.90;3.95;;;;;;;-3.59;45.19;94152.34;5028972;28;20021;-74
2022/03/10 08:25:17;;;;;;;3.47;3.17;;;;;;;-3.49;44.30;94185.63;5021393;28;20099;-73
2022/03/10 08:27:44;;;;;;;10.75;4.88;;;;;;;-4.28;44.78;94131.84;5024744;28;20499;-74
2022/03/10 08:30:13;;;;;;;4.85;3.42;;;;;;;-4.04;44.07;94206.34;5021602;28;20041;-74
2022/03/10 08:32:45;;;;;;;8.50;4.10;;;;;;;-4.29;44.48;94182.22;5024997;28;20041;-72
2022/03/10 08:35:11;;;;;;;4.65;3.00;;;;;;;-4.16;44.81;94171.69;5025916;28;20017;-72
2022/03/10 08:37:37;;;;;;;4.22;2.85;;;;;;;-4.23;44.00;94142.38;5022830;28;20160;-73
2022/03/10 08:40:03;;;;;;;5.68;4.63;;;;;;;-4.30;43.88;94189.19;5019631;28;20045;-73
2022/03/10 08:42:28;;;;;;;8.55;3.65;;;;;;;-4.45;44.95;94165.34;5025400;28;20045;-71
2022/03/10 08:44:54;;;;;;;4.00;3.20;;;;;;;-4.14;45.79;94200.84;5028196;28;20068;-74
2022/03/10 08:47:19;;;;;;;3.35;2.60;;;;;;;-4.15;45.82;94162.91;5018806;28;20029;-74
2022/03/10 08:49:45;;;;;;;3.92;3.42;;;;;;;-4.05;46.07;94173.59;5026092;28;20045;-75
2022/03/10 08:52:11;;;;;;;3.90;3.45;;;;;;;-4.08;46.20;94180.00;5025374;28;20498;-74
2022/03/10 08:54:36;;;;;;;6.90;4.07;;;;;;;-3.88;45.52;94198.03;5036556;28;20037;-75
2022/03/10 08:57:02;;;;;;;6.70;4.30;;;;;;;-3.90;46.54;94207.81;5023442;28;20052;-74
2022/03/10 08:59:27;;;;;;;2.95;2.75;;;;;;;-3.71;45.99;94186.03;5028973;28;20025;-74
2022/03/10 09:01:53;;;;;;;3.65;3.28;;;;;;;-3.90;46.60;94207.81;5024004;28;20086;-74
2022/03/10 09:04:18;;;;;;;8.27;4.63;;;;;;;-4.09;47.52;94196.59;5027040;28;20045;-74
2022/03/10 09:06:44;;;;;;;4.88;3.83;;;;;;;-4.09;48.36;94219.19;5039330;28;20032;-74
2022/03/10 09:09:09;;;;;;;4.40;3.15;;;;;;;-4.08;47.81;94189.59;5029490;28;20037;-75
2022/03/10 09:11:34;;;;;;;5.78;3.67;;;;;;;-3.76;46.57;94201.50;5018219;28;20106;-74
2022/03/10 09:14:00;;;;;;;4.28;3.67;;;;;;;-3.76;47.11;94179.94;5029156;28;20033;-73
2022/03/10 09:16:25;;;;;;;6.80;3.65;;;;;;;-3.53;46.73;94194.88;5020090;28;20559;-74
2022/03/10 09:18:51;;;;;;;33.30;13.45;;;;;;;-3.76;45.68;94118.34;5018636;28;20087;-74
2022/03/10 09:21:18;;;;;;;3.75;2.97;;;;;;;-3.42;45.86;94179.34;5022119;28;20029;-73
2022/03/10 09:23:43;;;;;;;4.55;3.53;;;;;;;-3.27;45.32;94187.56;5023868;28;20102;-74
2022/03/10 09:26:09;;;;;;;4.55;3.28;;;;;;;-2.95;45.41;94190.78;5017131;28;20025;-74
2022/03/10 09:28:34;;;;;;;4.38;3.33;;;;;;;-2.95;44.54;94190.78;5022589;28;20507;-75
2022/03/10 09:31:00;;;;;;;6.00;3.83;;;;;;;-2.59;44.14;94147.44;5023389;28;20441;-74
2022/03/10 09:33:25;;;;;;;4.32;3.05;;;;;;;-2.45;42.12;94175.66;5031041;28;20026;-75
2022/03/10 09:35:51;;;;;;;8.40;4.63;;;;;;;-2.00;41.34;94191.56;5022150;28;20678;-75
2022/03/10 09:38:17;;;;;;;47.22;11.30;;;;;;;-2.38;41.16;94180.75;5036725;28;20396;-74
2022/03/10 09:40:42;;;;;;;5.40;4.30;;;;;;;-2.77;42.11;94176.91;5021280;28;20025;-74
2022/03/10 09:43:10;;;;;;;5.47;3.95;;;;;;;-3.07;42.92;94186.53;5037868;28;20038;-73
2022/03/10 09:45:37;;;;;;;4.45;3.92;;;;;;;-3.23;42.91;94177.53;5014756;28;20444;-75
2022/03/10 09:48:03;;;;;;;3.83;3.45;;;;;;;-3.50;41.78;94199.63;5022016;28;20064;-75
2022/03/10 09:50:28;;;;;;;5.53;4.63;;;;;;;-3.78;42.31;94177.53;5016895;28;20044;-74
2022/03/10 09:52:53;;;;;;;3.95;3.60;;;;;;;-3.77;42.00;94202.53;5020785;28;20380;-75
2022/03/10 09:55:19;;;;;;;6.55;4.32;;;;;;;-3.62;41.95;94197.78;5015490;28;20044;-76
2022/03/10 09:57:46;;;;;;;4.30;3.75;;;;;;;-3.63;42.23;94136.38;5022562;28;20499;-73
2022/03/10 10:00:15;;;;;;;8.75;3.47;;;;;;;-3.34;42.80;94202.47;5016728;28;20053;-74
2022/03/10 10:02:44;;;;;;;3.75;2.88;;;;;;;-2.90;42.74;94196.13;5023534;28;20029;-74
2022/03/10 10:05:23;;;;;;;4.55;3.28;;;;;;;-2.32;42.54;94206.72;5023368;28;20358;-76
2022/03/10 10:08:05;;;;;;;4.03;3.10;;;;;;;-2.54;41.04;94210.06;5017438;28;20506;-73
2022/03/10 10:10:33;;;;;;;3.75;3.22;;;;;;;-2.67;41.29;94197.19;5022046;28;20049;-75
2022/03/10 10:13:04;;;;;;;6.93;3.33;;;;;;;-2.65;41.29;94221.22;5022957;28;20068;-74
2022/03/10 10:15:37;;;;;;;5.85;2.88;;;;;;;-2.25;40.58;94211.81;5017948;28;20033;-74
2022/03/10 10:18:05;;;;;;;5.25;2.67;;;;;;;-2.21;40.04;94202.53;5037345;28;20088;-75
2022/03/10 10:20:32;;;;;;;9.77;4.45;;;;;;;-2.21;39.63;94202.53;5021518;28;20025;-74
2022/03/10 10:23:14;;;;;;;5.05;3.60;;;;;;;-2.54;39.63;94197.84;5021356;28;20096;-74
2022/03/10 10:25:53;;;;;;;5.68;2.83;;;;;;;-2.19;38.60;94220.56;5024359;28;20515;-75
2022/03/10 10:28:23;;;;;;;3.20;2.92;;;;;;;-2.26;38.65;94212.84;5019130;28;20091;-76
2022/03/10 10:31:00;;;;;;;5.25;3.15;;;;;;;-2.04;39.53;94187.81;5022930;28;20033;-75
2022/03/10 10:33:27;;;;;;;3.75;2.83;;;;;;;-2.16;40.20;94187.03;5024341;28;20934;-73
2022/03/10 10:36:15;;;;;;;7.03;3.97;;;;;;;-1.97;39.69;94214.56;5018752;28;20042;-74
2022/03/10 10:38:42;;;;;;;8.35;3.70;;;;;;;-1.96;40.08;94216.16;5025421;28;20048;-76
2022/03/10 10:41:18;;;;;;;4.13;3.55;;;;;;;-2.18;40.27;94216.91;5021627;28;20029;-74
2022/03/10 10:43:47;;;;;;;7.47;3.20;;;;;;;-2.42;41.49;94211.66;5021436;28;20505;-73
2022/03/10 10:46:32;;;;;;;3.40;2.53;;;;;;;-2.50;41.92;94219.00;5022015;28;20500;-73
2022/03/10 10:49:04;;;;;;;3.83;2.70;;;;;;;-2.99;41.96;94215.66;5025587;28;20084;-75
2022/03/10 10:51:37;;;;;;;6.85;3.15;;;;;;;-3.13;42.31;94214.22;5016993;28;20053;-73
2022/03/10 10:54:06;;;;;;;3.40;3.10;;;;;;;-3.35;42.39;94220.88;5024702;28;20064;-73
2022/03/10 10:56:34;;;;;;;4.80;3.50;;;;;;;-3.58;42.65;94201.53;5029836;28;20590;-72
2022/03/10 10:59:01;;;;;;;5.15;3.03;;;;;;;-3.50;43.05;94217.81;5013192;28;20237;-75
2022/03/10 11:01:36;;;;;;;3.47;3.17;;;;;;;-3.24;42.60;94207.94;5016965;28;20033;-74
2022/03/10 11:04:03;;;;;;;;;;;;;;;-2.96;42.19;94212.59;5024897;28;20075;-75
2022/03/10 11:06:29;;;;;;;3.72;3.30;;;;;;;-3.28;41.83;94185.19;5021327;28;19924;-75
2022/03/10 11:08:54;;;;;;;3.55;3.17;;;;;;;-3.31;40.88;94188.22;5027848;28;20079;-75
2022/03/10 11:11:23;;;;;;;3.33;3.03;;;;;;;-3.04;40.83;94205.09;5010330;28;20067;-74
2022/03/10 11:13:48;;;;;;;2.63;2.42;;;;;;;-3.08;41.29;94209.16;5033969;28;20240;-74
2022/03/10 11:16:19;;;;;;;3.95;2.55;;;;;;;-3.06;40.41;94204.50;5022689;28;20348;-74
2022/03/10 11:18:50;;;;;;;2.75;2.25;;;;;;;-2.92;41.07;94195.53;5041549;28;20466;-74
2022/03/10 11:21:44;;;;;;;3.25;2.97;;;;;;;-2.89;40.88;94186.50;5022344;28;20445;-75
2022/03/10 11:24:20;;;;;;;4.95;3.28;;;;;;;-3.02;39.61;94171.84;5026027;28;20044;-75
2022/03/10 11:26:58;;;;;;;6.13;3.72;;;;;;;-3.30;41.28;94182.00;5026193;28;20072;-73
2022/03/10 11:29:26;;;;;;;7.05;3.85;;;;;;;-3.33;42.17;94172.84;5025472;28;20025;-74
2022/03/10 11:31:53;;;;;;;4.38;2.85;;;;;;;-3.05;42.60;94189.69;5022789;28;20646;-73
2022/03/10 11:34:50;;;;;;;4.13;3.70;;;;;;;-3.06;42.91;94208.91;5022104;28;20041;-74
2022/03/10 11:37:33;;;;;;;4.40;3.20;;;;;;;-3.21;42.59;94201.50;5019967;28;20606;-74